createdAt,value
2018-10-03T00:00:39.422Z,2.72
2018-10-03T00:03:07.917Z,2.33
2018-10-03T00:05:36.184Z,3.15
2018-10-03T00:08:04.598Z,2.17
2018-10-03T00:10:32.971Z,2.10
2018-10-03T00:13:01.201Z,2.02
2018-10-03T00:15:29.585Z,2.15
2018-10-03T00:17:57.952Z,2.05
2018-10-03T00:20:26.639Z,2.45
2018-10-03T00:22:54.908Z,2.08
2018-10-03T00:25:23.519Z,1.80
2018-10-03T00:27:51.783Z,1.77
2018-10-03T00:30:20.124Z,1.82
2018-10-03T00:32:48.399Z,2.72
2018-10-03T00:35:16.742Z,1.87
2018-10-03T00:37:45.204Z,2.02
2018-10-03T00:40:13.405Z,1.70
2018-10-03T00:42:41.908Z,2.20
2018-10-03T00:45:10.183Z,2.58
2018-10-03T00:47:38.387Z,1.75
2018-10-03T00:50:06.836Z,2.22
2018-10-03T00:52:35.141Z,1.90
2018-10-03T00:55:03.714Z,2.27
2018-10-03T00:57:32.162Z,2.00
2018-10-03T01:00:00.495Z,2.25
2018-10-03T01:02:28.886Z,2.25
2018-10-03T01:04:57.236Z,2.12
2018-10-03T01:07:25.520Z,2.02
2018-10-03T01:10:00.546Z,1.75
2018-10-03T01:12:28.825Z,2.15
2018-10-03T01:14:57.042Z,1.90
2018-10-03T01:17:25.243Z,1.70
2018-10-03T01:19:54.494Z,2.00
2018-10-03T01:22:22.801Z,1.98
2018-10-03T01:24:50.984Z,1.98
2018-10-03T01:27:19.267Z,2.15
2018-10-03T01:29:47.653Z,1.80
2018-10-03T01:32:15.954Z,2.15
2018-10-03T01:34:44.221Z,2.80
2018-10-03T01:37:12.521Z,2.62
2018-10-03T01:39:40.777Z,1.90
2018-10-03T01:42:09.044Z,2.40
2018-10-03T01:44:37.566Z,2.40
2018-10-03T01:47:05.882Z,1.75
2018-10-03T01:49:34.085Z,1.57
2018-10-03T01:52:02.609Z,2.20
2018-10-03T01:54:30.952Z,2.30
2018-10-03T01:56:59.305Z,2.15
2018-10-03T01:59:27.631Z,2.08
2018-10-03T02:01:55.903Z,2.00
2018-10-03T02:04:24.209Z,1.90
2018-10-03T02:06:52.463Z,1.57
2018-10-03T02:09:20.927Z,2.02
2018-10-03T02:11:49.245Z,2.12
2018-10-03T02:14:17.395Z,1.98
2018-10-03T02:16:48.695Z,1.92
2018-10-03T02:19:16.967Z,1.85
2018-10-03T02:21:45.281Z,2.58
2018-10-03T02:24:13.450Z,1.87
2018-10-03T02:26:41.630Z,1.90
2018-10-03T02:29:10.168Z,1.85
2018-10-03T02:31:38.406Z,2.15
2018-10-03T02:34:06.682Z,2.30
2018-10-03T02:36:34.887Z,2.00
2018-10-03T02:39:05.825Z,1.65
2018-10-03T02:41:34.377Z,2.37
2018-10-03T02:44:02.998Z,2.33
2018-10-03T02:46:31.348Z,1.67
2018-10-03T02:48:59.713Z,1.70
2018-10-03T02:51:27.987Z,2.10
2018-10-03T02:53:56.310Z,1.65
2018-10-03T02:56:24.598Z,3.10
2018-10-03T02:58:52.837Z,1.77
2018-10-03T03:01:21.110Z,2.00
2018-10-03T03:03:49.388Z,2.00
2018-10-03T03:06:17.699Z,2.15
2018-10-03T03:08:46.098Z,2.27
2018-10-03T03:11:14.283Z,2.80
2018-10-03T03:13:42.606Z,1.98
2018-10-03T03:16:11.043Z,1.70
2018-10-03T03:18:39.296Z,2.02
2018-10-03T03:21:07.497Z,2.02
2018-10-03T03:23:36.243Z,2.00
2018-10-03T03:26:04.562Z,2.27
2018-10-03T03:28:32.880Z,1.80
2018-10-03T03:31:01.214Z,2.20
2018-10-03T03:33:29.526Z,2.10
2018-10-03T03:35:57.768Z,2.55
2018-10-03T03:38:26.110Z,2.08
2018-10-03T03:40:54.522Z,2.00
2018-10-03T03:43:22.771Z,2.35
2018-10-03T03:45:51.014Z,2.20
2018-10-03T03:48:19.264Z,2.05
2018-10-03T03:50:47.637Z,2.33
2018-10-03T03:53:16.108Z,2.52
2018-10-03T03:55:44.370Z,2.92
2018-10-03T03:58:12.657Z,3.08
2018-10-03T04:00:42.037Z,2.20
2018-10-03T04:03:10.313Z,2.15
2018-10-03T04:05:39.114Z,2.35
2018-10-03T04:08:07.510Z,2.37
2018-10-03T04:10:35.913Z,2.30
2018-10-03T04:13:04.356Z,2.35
2018-10-03T04:15:32.755Z,1.98
2018-10-03T04:18:01.121Z,1.80
2018-10-03T04:20:29.503Z,2.00
2018-10-03T04:22:57.878Z,1.95
2018-10-03T04:25:26.176Z,2.22
2018-10-03T04:27:54.461Z,2.05
2018-10-03T04:30:22.890Z,1.70
2018-10-03T04:32:51.136Z,1.82
2018-10-03T04:35:19.501Z,1.87
2018-10-03T04:37:47.786Z,2.08
2018-10-03T04:40:16.259Z,2.10
2018-10-03T04:42:44.803Z,1.85
2018-10-03T04:45:13.090Z,1.77
2018-10-03T04:47:41.376Z,1.72
2018-10-03T04:50:09.736Z,1.72
2018-10-03T04:52:38.095Z,1.70
2018-10-03T04:55:06.567Z,1.62
2018-10-03T04:57:34.895Z,1.70
2018-10-03T05:00:03.493Z,2.17
2018-10-03T05:02:32.049Z,1.82
2018-10-03T05:05:00.390Z,2.15
2018-10-03T05:07:28.709Z,2.10
2018-10-03T05:09:56.994Z,1.87
2018-10-03T05:12:25.358Z,2.00
2018-10-03T05:14:53.860Z,1.90
2018-10-03T05:17:22.126Z,1.98
2018-10-03T05:19:50.517Z,1.75
2018-10-03T05:22:18.840Z,2.40
2018-10-03T05:24:47.274Z,1.85
2018-10-03T05:27:15.749Z,1.95
2018-10-03T05:29:44.284Z,2.00
2018-10-03T05:32:12.576Z,2.00
2018-10-03T05:34:40.915Z,1.75
2018-10-03T05:37:09.305Z,1.82
2018-10-03T05:39:37.818Z,2.25
2018-10-03T05:42:06.179Z,2.15
2018-10-03T05:44:34.497Z,1.80
2018-10-03T05:47:02.810Z,1.75
2018-10-03T05:49:31.291Z,2.15
2018-10-03T05:51:59.550Z,2.08
2018-10-03T05:54:27.801Z,1.60
2018-10-03T05:56:56.260Z,2.33
2018-10-03T05:59:24.628Z,1.92
2018-10-03T06:01:52.826Z,1.65
2018-10-03T06:04:21.113Z,1.95
2018-10-03T06:06:49.354Z,1.35
2018-10-03T06:09:17.745Z,1.92
2018-10-03T06:11:46.221Z,2.27
2018-10-03T06:14:14.814Z,2.90
2018-10-03T06:16:43.097Z,1.70
2018-10-03T06:19:11.873Z,1.50
2018-10-03T06:21:40.112Z,1.85
2018-10-03T06:24:08.419Z,1.87
2018-10-03T06:26:36.714Z,1.92
2018-10-03T06:29:05.107Z,1.80
2018-10-03T06:31:33.421Z,1.47
2018-10-03T06:34:01.804Z,1.80
2018-10-03T06:36:30.310Z,1.90
2018-10-03T06:38:58.688Z,2.05
2018-10-03T06:41:27.149Z,2.02
2018-10-03T06:43:55.860Z,1.57
2018-10-03T06:46:24.270Z,2.10
2018-10-03T06:48:52.748Z,1.92
2018-10-03T06:51:21.064Z,1.85
2018-10-03T06:53:49.559Z,1.82
2018-10-03T06:56:18.023Z,1.60
2018-10-03T06:58:46.372Z,2.02
2018-10-03T07:01:14.725Z,1.70
2018-10-03T07:03:43.030Z,2.00
2018-10-03T07:06:11.507Z,2.15
2018-10-03T07:08:39.884Z,1.10
2018-10-03T07:11:08.159Z,1.92
2018-10-03T07:13:36.604Z,2.70
2018-10-03T07:16:05.058Z,2.20
2018-10-03T07:18:33.501Z,2.50
2018-10-03T07:21:02.272Z,1.90
2018-10-03T07:23:30.748Z,2.40
2018-10-03T07:25:59.161Z,1.70
2018-10-03T07:28:27.654Z,2.10
2018-10-03T07:30:56.103Z,1.80
2018-10-03T07:33:24.409Z,2.08
2018-10-03T07:35:53.008Z,2.30
2018-10-03T07:38:21.761Z,1.87
2018-10-03T07:40:50.245Z,2.58
2018-10-03T07:43:19.005Z,2.27
2018-10-03T07:45:47.425Z,2.80
2018-10-03T07:48:15.854Z,2.35
2018-10-03T07:50:44.230Z,2.45
2018-10-03T07:53:12.588Z,2.25
2018-10-03T07:55:40.913Z,2.25
2018-10-03T07:58:09.332Z,1.70
2018-10-03T08:00:37.712Z,1.80
2018-10-03T08:03:12.420Z,1.95
2018-10-03T08:05:40.714Z,2.55
2018-10-03T08:08:09.248Z,2.30
2018-10-03T08:10:39.970Z,2.20
2018-10-03T08:13:13.100Z,2.47
2018-10-03T08:29:08.174Z,2.80
2018-10-03T08:31:40.779Z,3.25
2018-10-03T08:34:18.080Z,2.80
2018-10-03T08:36:50.512Z,2.95
2018-10-03T08:39:32.580Z,2.50
2018-10-03T08:42:06.408Z,2.30
2018-10-03T08:46:04.027Z,2.25
2018-10-03T08:48:43.399Z,2.95
2018-10-03T08:51:14.251Z,3.50
2018-10-03T08:53:46.232Z,2.80
2018-10-03T08:56:21.641Z,2.65
2018-10-03T08:58:51.979Z,2.80
2018-10-03T09:01:28.976Z,2.45
2018-10-03T09:04:01.658Z,2.25
2018-10-03T09:06:33.909Z,2.70
2018-10-03T09:09:33.452Z,2.50
2018-10-03T09:14:38.143Z,2.37
2018-10-03T09:17:07.654Z,2.30
2018-10-03T09:19:39.863Z,1.87
2018-10-03T09:22:08.532Z,1.60
2018-10-03T09:24:41.261Z,1.98
2018-10-03T09:27:11.170Z,1.87
2018-10-03T09:29:40.221Z,2.15
2018-10-03T09:32:10.699Z,2.20
2018-10-03T09:34:43.407Z,2.20
2018-10-03T09:37:11.957Z,7.80
2018-10-03T09:39:40.710Z,3.05
2018-10-03T09:42:10.274Z,2.62
2018-10-03T09:44:38.990Z,2.30
2018-10-03T09:47:11.673Z,2.70
2018-10-03T09:49:40.197Z,2.60
2018-10-03T09:52:09.343Z,3.17
2018-10-03T09:54:39.469Z,3.47
2018-10-03T09:57:08.351Z,5.20
2018-10-03T09:59:37.406Z,3.40
2018-10-03T10:02:13.594Z,3.20
2018-10-03T10:04:56.011Z,3.40
2018-10-03T10:07:34.272Z,3.80
2018-10-03T10:10:09.231Z,3.25
2018-10-03T10:12:47.933Z,3.25
2018-10-03T10:15:22.407Z,3.52
2018-10-03T10:18:08.561Z,3.72
2018-10-03T10:20:40.326Z,4.00
2018-10-03T10:23:14.802Z,3.52
2018-10-03T10:25:50.799Z,5.42
2018-10-03T10:28:26.314Z,4.05
2018-10-03T10:31:01.573Z,3.40
2018-10-03T10:33:31.567Z,5.05
2018-10-03T10:36:00.718Z,4.45
2018-10-03T10:38:29.576Z,3.80
2018-10-03T10:40:58.252Z,3.90
2018-10-03T10:43:27.007Z,3.30
2018-10-03T10:45:56.414Z,3.60
2018-10-03T10:48:25.282Z,3.40
2018-10-03T10:50:55.874Z,3.65
2018-10-03T10:53:29.281Z,4.03
2018-10-03T10:56:02.800Z,3.30
2018-10-03T10:58:35.689Z,3.50
2018-10-03T11:03:57.540Z,3.30
2018-10-03T11:06:29.636Z,3.80
2018-10-03T11:09:00.943Z,4.00
2018-10-03T11:11:33.058Z,3.20
2018-10-03T11:14:02.080Z,3.83
2018-10-03T11:16:36.069Z,3.53
2018-10-03T11:19:05.200Z,4.73
2018-10-03T11:21:36.071Z,3.98
2018-10-03T11:24:08.151Z,4.45
2018-10-03T11:26:38.468Z,3.50
2018-10-03T11:29:07.923Z,2.90
2018-10-03T11:31:37.350Z,3.40
2018-10-03T11:34:07.134Z,3.97
2018-10-03T11:36:36.412Z,4.00
2018-10-03T11:39:10.538Z,3.60
2018-10-03T11:41:39.630Z,3.50
2018-10-03T11:44:08.878Z,9.13
2018-10-03T11:46:38.604Z,4.47
2018-10-03T11:49:09.759Z,3.30
2018-10-03T11:51:40.249Z,3.60
2018-10-03T11:54:10.666Z,3.00
2018-10-03T11:56:39.290Z,3.30
2018-10-03T11:59:08.269Z,3.03
2018-10-03T12:01:48.719Z,5.50
2018-10-03T12:04:45.064Z,2.90
2018-10-03T12:07:48.776Z,3.67
2018-10-03T12:10:21.519Z,3.60
2018-10-03T12:12:50.550Z,3.70
2018-10-03T12:15:20.592Z,4.17
2018-10-03T12:18:01.698Z,4.00
2018-10-03T12:20:31.038Z,3.90
2018-10-03T12:23:07.798Z,3.50
2018-10-03T12:25:42.025Z,4.00
2018-10-03T12:28:17.257Z,3.73
2018-10-03T12:30:46.628Z,3.77
2018-10-03T12:33:15.405Z,3.57
2018-10-03T12:35:57.458Z,3.83
2018-10-03T12:38:28.835Z,3.30
2018-10-03T12:41:13.390Z,3.83
2018-10-03T12:43:51.074Z,3.10
2018-10-03T12:46:23.714Z,4.23
2018-10-03T12:48:52.895Z,3.27
2018-10-03T12:51:21.622Z,3.80
2018-10-03T12:53:52.759Z,4.10
2018-10-03T12:56:21.584Z,3.77
2018-10-03T12:58:50.689Z,4.57
2018-10-03T13:01:19.642Z,4.25
2018-10-03T13:03:48.214Z,3.97
2018-10-03T13:06:18.849Z,4.53
2018-10-03T13:08:53.572Z,4.03
2018-10-03T13:11:26.853Z,4.13
2018-10-03T13:13:58.393Z,5.00
2018-10-03T13:16:27.439Z,4.73
2018-10-03T13:19:13.042Z,4.70
2018-10-03T13:21:43.990Z,4.28
2018-10-03T13:24:33.902Z,4.80
2018-10-03T13:27:05.792Z,4.77
2018-10-03T13:29:34.335Z,4.40
2018-10-03T13:32:05.216Z,4.50
2018-10-03T13:34:40.339Z,4.60
2018-10-03T13:37:17.614Z,5.10
2018-10-03T13:39:51.328Z,4.65
2018-10-03T13:42:22.339Z,4.85
2018-10-03T13:44:50.911Z,4.40
2018-10-03T13:47:19.743Z,3.98
2018-10-03T13:49:48.288Z,4.23
2018-10-03T13:52:22.017Z,4.10
2018-10-03T13:54:53.308Z,5.00
2018-10-03T13:57:22.689Z,4.67
2018-10-03T13:59:56.249Z,4.85
2018-10-03T14:02:27.374Z,4.42
2018-10-03T14:04:55.886Z,4.50
2018-10-03T14:20:35.716Z,4.17
2018-10-03T14:23:05.204Z,4.35
2018-10-03T14:25:37.614Z,4.45
2018-10-03T14:28:12.420Z,4.97
2018-10-03T14:30:54.291Z,5.10
2018-10-03T14:33:30.784Z,4.83
2018-10-03T14:36:23.288Z,5.03
2018-10-03T14:41:36.664Z,4.70
2018-10-03T14:44:06.943Z,4.70
2018-10-03T14:46:36.295Z,5.20
2018-10-03T14:49:05.086Z,5.00
2018-10-03T14:51:36.472Z,5.77
2018-10-03T14:54:05.253Z,4.90
2018-10-03T14:56:33.746Z,4.07
2018-10-03T14:59:06.634Z,4.57
2018-10-03T15:01:36.393Z,4.07
2018-10-03T15:04:05.526Z,4.03
2018-10-03T15:06:34.668Z,4.40
2018-10-03T15:09:11.616Z,4.23
2018-10-03T15:11:40.142Z,3.97
2018-10-03T15:14:08.589Z,3.73
2018-10-03T15:16:37.068Z,4.10
2018-10-03T15:19:06.090Z,4.40
2018-10-03T15:21:34.788Z,4.17
2018-10-03T15:24:06.517Z,3.87
2018-10-03T15:26:35.389Z,4.07
2018-10-03T15:29:04.255Z,4.37
2018-10-03T15:31:33.316Z,3.77
2018-10-03T15:34:02.313Z,4.10
2018-10-03T15:36:31.270Z,3.87
2018-10-03T15:39:00.170Z,4.60
2018-10-03T15:44:25.830Z,3.50
2018-10-03T15:46:54.681Z,3.73
2018-10-03T15:49:23.455Z,3.70
2018-10-03T15:51:52.113Z,3.20
2018-10-03T15:54:21.216Z,3.70
2018-10-03T16:38:43.587Z,4.03
2018-10-03T16:41:33.721Z,3.77
2018-10-03T16:44:27.947Z,4.00
2018-10-03T16:47:04.683Z,5.20
2018-10-03T16:49:38.502Z,4.30
2018-10-03T16:52:08.643Z,4.10
2018-10-03T16:54:47.093Z,3.93
2018-10-03T16:57:40.839Z,3.62
2018-10-03T17:00:11.489Z,4.27
2018-10-03T17:02:42.842Z,4.60
2018-10-03T17:05:16.191Z,6.45
2018-10-03T17:07:44.840Z,6.20
2018-10-03T17:10:22.323Z,6.10
2018-10-03T17:12:52.683Z,6.20
2018-10-03T17:15:21.092Z,5.25
2018-10-03T17:17:49.726Z,6.30
2018-10-03T17:20:19.146Z,5.67
2018-10-03T17:22:47.943Z,5.10
2018-10-03T17:25:17.302Z,6.55
2018-10-03T17:27:47.014Z,5.28
2018-10-03T17:30:51.950Z,5.62
2018-10-03T17:50:12.270Z,5.60
2018-10-03T17:52:41.794Z,6.00
2018-10-03T17:55:10.262Z,5.85
2018-10-03T17:57:38.632Z,5.80
2018-10-03T18:00:08.291Z,5.65
2018-10-03T18:02:36.902Z,6.22
2018-10-03T18:05:06.595Z,5.60
2018-10-03T18:07:35.446Z,5.87
2018-10-03T18:10:03.929Z,6.08
2018-10-03T18:12:32.419Z,6.35
2018-10-03T18:15:02.292Z,7.20
2018-10-03T18:17:31.319Z,5.97
2018-10-03T18:20:01.964Z,5.87
2018-10-03T18:22:32.771Z,6.60
2018-10-03T18:25:05.504Z,6.92
2018-10-03T18:27:34.435Z,6.40
2018-10-03T18:30:05.651Z,6.65
2018-10-03T18:32:35.645Z,5.80
2018-10-03T18:35:07.804Z,6.10
2018-10-03T18:37:36.921Z,7.17
2018-10-03T18:40:05.974Z,7.25
2018-10-03T18:42:34.721Z,6.17
2018-10-03T18:45:05.745Z,6.20
2018-10-03T18:47:34.775Z,6.10
2018-10-03T18:50:03.723Z,6.55
2018-10-03T18:52:33.364Z,6.12
2018-10-03T18:55:02.337Z,6.37
2018-10-03T18:57:45.307Z,6.12
2018-10-03T19:00:14.252Z,6.60
2018-10-03T19:02:43.570Z,6.00
2018-10-03T19:05:12.316Z,6.25
2018-10-03T19:07:41.194Z,6.17
2018-10-03T19:10:10.695Z,6.65
2018-10-03T19:12:40.145Z,7.25
2018-10-03T19:15:08.989Z,6.90
2018-10-03T19:17:37.627Z,6.97
2018-10-03T19:20:06.520Z,6.37
2018-10-03T19:22:36.004Z,7.08
2018-10-03T19:25:05.060Z,7.40
2018-10-03T19:27:34.345Z,7.20
2018-10-03T19:30:03.619Z,10.85
2018-10-03T19:32:32.832Z,8.05
2018-10-03T19:35:01.854Z,8.40
2018-10-03T19:37:30.698Z,7.37
2018-10-03T19:39:59.577Z,7.72
2018-10-03T19:42:28.666Z,6.95
2018-10-03T19:44:57.603Z,7.50
2018-10-03T19:47:26.961Z,6.35
2018-10-03T19:49:55.648Z,6.55
2018-10-03T19:52:24.323Z,7.00
2018-10-03T19:54:52.951Z,6.15
2018-10-03T19:57:22.754Z,7.97
2018-10-03T19:59:52.528Z,7.08
2018-10-03T20:02:21.350Z,7.62
2018-10-03T20:04:49.869Z,7.17
2018-10-03T20:07:18.363Z,12.80
2018-10-03T20:09:47.094Z,6.17
2018-10-03T20:12:16.048Z,8.05
2018-10-03T20:14:46.108Z,6.17
2018-10-03T20:17:15.500Z,5.80
2018-10-03T20:19:50.248Z,5.95
2018-10-03T20:22:19.831Z,7.08
2018-10-03T20:24:48.579Z,6.95
2018-10-03T20:27:18.063Z,8.48
2018-10-03T20:32:34.633Z,6.75
2018-10-03T20:35:05.893Z,6.70
2018-10-03T20:37:36.511Z,7.65
2018-10-03T20:40:06.228Z,6.97
2018-10-03T20:42:38.014Z,6.85
2018-10-03T20:45:07.458Z,7.05
2018-10-03T20:47:36.427Z,6.28
2018-10-03T20:50:05.602Z,6.58
2018-10-03T20:52:34.216Z,8.25
2018-10-03T20:55:03.039Z,6.40
2018-10-03T20:57:31.732Z,6.55
2018-10-03T21:00:00.736Z,7.40
2018-10-03T21:02:29.378Z,6.58
2018-10-03T21:04:58.941Z,6.90
2018-10-03T21:07:27.611Z,7.08
2018-10-03T21:10:00.112Z,6.80
2018-10-03T21:12:31.492Z,6.87
2018-10-03T21:15:01.836Z,6.78
2018-10-03T21:17:30.867Z,6.53
2018-10-03T21:19:59.794Z,6.37
2018-10-03T21:22:28.437Z,6.05
2018-10-03T21:24:57.296Z,7.22
2018-10-03T21:27:26.065Z,7.08
2018-10-03T21:29:55.509Z,7.12
2018-10-03T21:32:24.245Z,6.85
2018-10-03T21:34:52.674Z,7.72
2018-10-03T21:37:21.392Z,7.42
2018-10-03T21:39:49.770Z,7.85
2018-10-03T21:42:18.524Z,7.85
2018-10-03T21:44:46.977Z,8.00
2018-10-03T21:47:15.492Z,7.17
2018-10-03T21:49:44.319Z,8.28
2018-10-03T21:52:12.679Z,7.53
2018-10-03T21:54:41.679Z,8.25
2018-10-03T21:57:10.133Z,7.60
2018-10-03T21:59:38.651Z,6.70
2018-10-03T22:02:07.269Z,8.03
2018-10-03T22:04:35.595Z,7.83
2018-10-03T22:07:04.088Z,7.50
2018-10-03T22:09:32.683Z,7.50
2018-10-03T22:12:01.298Z,7.37
2018-10-03T22:14:29.934Z,6.80
2018-10-03T22:16:58.399Z,5.80
2018-10-03T22:19:26.903Z,6.20
2018-10-03T22:21:55.348Z,7.00
2018-10-03T22:24:23.949Z,7.15
2018-10-03T22:26:52.519Z,6.72
2018-10-03T22:29:20.950Z,5.70
2018-10-03T22:31:49.380Z,6.55
2018-10-03T22:34:17.709Z,6.05
2018-10-03T22:36:46.504Z,6.28
2018-10-03T22:39:14.785Z,6.92
2018-10-03T22:41:43.198Z,6.30
2018-10-03T22:44:11.654Z,6.12
2018-10-03T22:46:40.095Z,5.85
2018-10-03T22:49:08.362Z,6.50
2018-10-03T22:51:36.642Z,6.53
2018-10-03T22:54:05.044Z,6.72
2018-10-03T22:56:33.428Z,6.20
2018-10-03T22:59:01.737Z,6.45
2018-10-03T23:01:30.082Z,5.72
2018-10-03T23:03:58.497Z,5.97
2018-10-03T23:06:26.785Z,6.22
2018-10-03T23:08:55.360Z,5.67
2018-10-03T23:11:23.699Z,6.15
2018-10-03T23:13:52.026Z,6.20
2018-10-03T23:16:20.463Z,5.83
2018-10-03T23:18:49.033Z,6.50
2018-10-03T23:21:17.483Z,6.15
2018-10-03T23:23:45.912Z,6.47
2018-10-03T23:26:14.259Z,6.15
2018-10-03T23:28:42.595Z,6.92
2018-10-03T23:31:10.912Z,5.85
2018-10-03T23:33:39.394Z,6.10
2018-10-03T23:36:07.655Z,6.08
2018-10-03T23:38:36.071Z,5.70
2018-10-03T23:41:04.344Z,6.95
2018-10-03T23:43:32.657Z,6.12
2018-10-03T23:46:00.940Z,6.25
2018-10-03T23:48:29.238Z,5.85
2018-10-03T23:50:57.625Z,5.90
2018-10-03T23:53:26.018Z,6.15
2018-10-03T23:55:54.246Z,6.05
2018-10-03T23:58:22.514Z,6.67
